Back to Top

Language: 

My Weather Underground Personal Weather Station Historical Data with Graphs...

Delerius Weather Station Historical Data
Daily Summary for December 26, 2017 Units:  Metric    English   Both
« Previous Day
Next Day »
Daily Weekly Monthly Yearly Custom
  High: Low: Average:
Temperature: 6.1 °C 2.2 °C 3.7 °C
Dew Point: 3.3 °C 1.1 °C 2.1 °C
Humidity: 94 % 77 % 89 %
Wind Speed: 29 km/h 0 km/h 13.5 km/h
Wind Gust: 53.1 km/h - -
Wind:- - SW
Pressure: 992.4 hPa 985.3 hPa -
Precipitation: 3.05 mm    
Historical Graphs
 
 
Tabular Data for December 26, 2017
Time Temperature Dew Point Pressure Wind Wind Speed Wind Gust Humidity Rainfall Rate (Hourly) solar Conditions
00:02 4.7 °C 3.2 °C 990.4 hPa West 14.5 km/h 25.7 km/h 90 % 0 mm 0 W/m2
00:03 4.7 °C 3.2 °C 990.4 hPa West 17.7 km/h 32.2 km/h 90 % 0 mm 0 W/m2
00:05 4.7 °C 3.2 °C 990.4 hPa West 22.5 km/h 32.2 km/h 90 % 0 mm 0 W/m2
00:08 4.7 °C 3.2 °C 990.4 hPa West 24.1 km/h 43.5 km/h 90 % 0 mm 0 W/m2
00:11 4.7 °C 3.2 °C 990.4 hPa West 24.1 km/h 40.2 km/h 90 % 0 mm 0 W/m2
00:15 4.7 °C 3.2 °C 990.4 hPa West 17.7 km/h 30.6 km/h 90 % 0 mm 0 W/m2
00:18 4.7 °C 3.2 °C 990.7 hPa West 20.9 km/h 33.8 km/h 90 % 0 mm 0 W/m2
00:23 4.7 °C 3.2 °C 990.7 hPa West 12.9 km/h 22.5 km/h 90 % 0 mm 0 W/m2
00:26 4.7 °C 3.2 °C 990.7 hPa West 16.1 km/h 22.5 km/h 90 % 0 mm 0 W/m2
00:31 4.6 °C 3.1 °C 990.7 hPa West 17.7 km/h 30.6 km/h 90 % 0 mm 0 W/m2
00:34 4.6 °C 3.1 °C 990.7 hPa West 24.1 km/h 38.6 km/h 90 % 0.25 mm 0 W/m2
00:39 4.5 °C 3 °C 990.7 hPa West 19.3 km/h 30.6 km/h 90 % 0.25 mm 0 W/m2
00:44 4.3 °C 2.8 °C 990.7 hPa West 25.7 km/h 38.6 km/h 90 % 0.25 mm 0 W/m2
00:45 4.3 °C 2.8 °C 990.7 hPa West 25.7 km/h 35.4 km/h 90 % 0.25 mm 0 W/m2
00:50 4.2 °C 2.7 °C 990.7 hPa West 20.9 km/h 32.2 km/h 90 % 0.25 mm 0 W/m2
00:52 4.1 °C 2.6 °C 990.7 hPa West 19.3 km/h 29 km/h 90 % 0.25 mm 0 W/m2
00:53 4.1 °C 2.6 °C 990.7 hPa West 17.7 km/h 29 km/h 90 % 0.25 mm 0 W/m2
00:58 4.1 °C 2.6 °C 990.4 hPa West 20.9 km/h 35.4 km/h 90 % 0.25 mm 0 W/m2
01:03 4.1 °C 2.6 °C 990.4 hPa West 20.9 km/h 32.2 km/h 90 % 0.25 mm 0 W/m2
01:07 4.1 °C 2.6 °C 990.4 hPa West 19.3 km/h 32.2 km/h 90 % 0.25 mm 0 W/m2
01:09 4.1 °C 2.6 °C 990.4 hPa West 17.7 km/h 24.1 km/h 90 % 0.25 mm 0 W/m2
01:13 4 °C 2.5 °C 990.4 hPa West 19.3 km/h 32.2 km/h 90 % 0.25 mm 0 W/m2
01:17 4.1 °C 2.6 °C 990.4 hPa West 22.5 km/h 35.4 km/h 90 % 0.25 mm 0 W/m2
01:21 4.1 °C 2.6 °C 990.4 hPa West 20.9 km/h 37 km/h 90 % 0.25 mm 0 W/m2
01:23 4.1 °C 2.6 °C 990.4 hPa West 20.9 km/h 30.6 km/h 90 % 0.25 mm 0 W/m2
01:28 4.2 °C 2.7 °C 990.7 hPa West 19.3 km/h 30.6 km/h 90 % 0.25 mm 0 W/m2
01:29 4.2 °C 2.7 °C 990.7 hPa West 17.7 km/h 29 km/h 90 % 0.25 mm 0 W/m2
01:32 4.2 °C 2.7 °C 990.7 hPa WSW 19.3 km/h 35.4 km/h 90 % 0 mm 0 W/m2
01:37 4 °C 2.3 °C 990.7 hPa West 22.5 km/h 32.2 km/h 89 % 0 mm 0 W/m2
01:39 3.9 °C 2.4 °C 990.7 hPa West 16.1 km/h 29 km/h 90 % 0 mm 0 W/m2
01:40 3.9 °C 2.4 °C 990.7 hPa West 16.1 km/h 32.2 km/h 90 % 0 mm 0 W/m2
01:45 3.6 °C 2.1 °C 990.7 hPa West 19.3 km/h 29 km/h 90 % 0 mm 0 W/m2
01:46 3.6 °C 2.1 °C 990.7 hPa West 17.7 km/h 29 km/h 90 % 0 mm 0 W/m2
01:51 3.4 °C 2.1 °C 990.7 hPa West 14.5 km/h 20.9 km/h 91 % 0 mm 0 W/m2
01:56 3.4 °C 2.1 °C 990.7 hPa West 12.9 km/h 22.5 km/h 91 % 0 mm 0 W/m2
01:57 3.4 °C 2.1 °C 990.7 hPa West 11.3 km/h 16.1 km/h 91 % 0 mm 0 W/m2
01:58 3.4 °C 2.1 °C 990.7 hPa West 11.3 km/h 17.7 km/h 91 % 0 mm 0 W/m2
02:02 3.4 °C 2.1 °C 990.7 hPa West 14.5 km/h 20.9 km/h 91 % 0 mm 0 W/m2
02:05 3.4 °C 2.1 °C 990.7 hPa West 14.5 km/h 22.5 km/h 91 % 0 mm 0 W/m2
02:10 3.4 °C 2.2 °C 990.7 hPa West 14.5 km/h 29 km/h 92 % 0 mm 0 W/m2
02:15 3.4 °C 2.2 °C 990.7 hPa West 11.3 km/h 17.7 km/h 92 % 0 mm 0 W/m2
02:20 3.5 °C 2.3 °C 990.7 hPa West 11.3 km/h 19.3 km/h 92 % 0 mm 0 W/m2
02:21 3.5 °C 2.3 °C 990.7 hPa West 12.9 km/h 19.3 km/h 92 % 0 mm 0 W/m2
02:29 3.6 °C 2.4 °C 990.7 hPa West 14.5 km/h 25.7 km/h 92 % 0 mm 0 W/m2
02:34 3.7 °C 2.5 °C 990.7 hPa West 17.7 km/h 29 km/h 92 % 0 mm 0 W/m2
02:36 3.7 °C 2.4 °C 990.7 hPa West 16.1 km/h 22.5 km/h 91 % 0 mm 0 W/m2
02:41 3.8 °C 2.4 °C 990.4 hPa West 16.1 km/h 24.1 km/h 91 % 0 mm 0 W/m2
02:43 3.8 °C 2.4 °C 990.7 hPa West 14.5 km/h 22.5 km/h 91 % 0 mm 0 W/m2
02:48 3.9 °C 2.6 °C 990.4 hPa West 16.1 km/h 24.1 km/h 91 % 0 mm 0 W/m2
02:51 3.9 °C 2.4 °C 990.7 hPa West 17.7 km/h 30.6 km/h 90 % 0 mm 0 W/m2
02:52 3.9 °C 2.4 °C 990.4 hPa West 19.3 km/h 37 km/h 90 % 0 mm 0 W/m2
02:57 3.9 °C 2.4 °C 990.7 hPa West 19.3 km/h 35.4 km/h 90 % 0 mm 0 W/m2
02:58 3.9 °C 2.4 °C 990.7 hPa West 25.7 km/h 35.4 km/h 90 % 0 mm 0 W/m2
03:01 4 °C 2.5 °C 990.7 hPa West 22.5 km/h 35.4 km/h 90 % 0 mm 0 W/m2
03:06 3.9 °C 2.4 °C 990.7 hPa West 19.3 km/h 25.7 km/h 90 % 0 mm 0 W/m2
03:09 3.9 °C 2.4 °C 990.7 hPa West 17.7 km/h 29 km/h 90 % 0 mm 0 W/m2
03:13 3.9 °C 2.3 °C 990.7 hPa West 16.1 km/h 29 km/h 89 % 0 mm 0 W/m2
03:18 3.8 °C 2.2 °C 990.7 hPa West 16.1 km/h 29 km/h 89 % 0 mm 0 W/m2
03:23 3.8 °C 2.2 °C 990.7 hPa West 14.5 km/h 25.7 km/h 89 % 0 mm 0 W/m2
03:26 3.8 °C 2.2 °C 990.4 hPa West 16.1 km/h 25.7 km/h 89 % 0 mm 0 W/m2
03:31 3.8 °C 2.2 °C 990.7 hPa West 17.7 km/h 35.4 km/h 89 % 0 mm 0 W/m2
03:35 3.8 °C 2.2 °C 990.7 hPa West 16.1 km/h 29 km/h 89 % 0 mm 0 W/m2
03:37 3.8 °C 2.2 °C 990.7 hPa West 19.3 km/h 32.2 km/h 89 % 0 mm 0 W/m2
03:42 4 °C 2.3 °C 990.7 hPa West 25.7 km/h 40.2 km/h 89 % 0 mm 0 W/m2
03:43 4.1 °C 2.3 °C 990.7 hPa West 25.7 km/h 37 km/h 88 % 0 mm 0 W/m2
03:48 4.2 °C 2.4 °C 990.4 hPa WSW 16.1 km/h 22.5 km/h 88 % 0 mm 0 W/m2
03:49 4.2 °C 2.4 °C 990.4 hPa WSW 16.1 km/h 22.5 km/h 88 % 0 mm 0 W/m2
03:54 4.2 °C 2.4 °C 990.4 hPa West 19.3 km/h 33.8 km/h 88 % 0 mm 0 W/m2
03:59 4.2 °C 2.4 °C 990.4 hPa West 20.9 km/h 33.8 km/h 88 % 0 mm 0 W/m2
04:00 4.2 °C 2.4 °C 990.4 hPa West 20.9 km/h 33.8 km/h 88 % 0 mm 0 W/m2
04:05 4.1 °C 2.3 °C 990.7 hPa West 17.7 km/h 32.2 km/h 88 % 0 mm 0 W/m2
04:09 4.1 °C 2.3 °C 990.7 hPa West 27.4 km/h 53.1 km/h 88 % 0 mm 0 W/m2
04:11 4.1 °C 2.3 °C 990.7 hPa West 27.4 km/h 43.5 km/h 88 % 0 mm 0 W/m2
04:16 3.9 °C 2.1 °C 990.4 hPa West 27.4 km/h 43.5 km/h 88 % 0 mm 0 W/m2
04:19 3.9 °C 2.1 °C 990.4 hPa West 19.3 km/h 30.6 km/h 88 % 0 mm 0 W/m2
04:22 3.8 °C 2 °C 990.4 hPa West 20.9 km/h 40.2 km/h 88 % 0 mm 0 W/m2
04:24 3.8 °C 2 °C 990.4 hPa West 25.7 km/h 33.8 km/h 88 % 0 mm 0 W/m2
04:28 3.8 °C 2 °C 990.4 hPa West 22.5 km/h 35.4 km/h 88 % 0 mm 0 W/m2
04:33 3.8 °C 2 °C 990.4 hPa West 24.1 km/h 33.8 km/h 88 % 0 mm 0 W/m2
04:37 3.9 °C 2.1 °C 990.4 hPa West 24.1 km/h 33.8 km/h 88 % 0 mm 0 W/m2
04:40 3.9 °C 1.9 °C 990.4 hPa West 20.9 km/h 35.4 km/h 87 % 0 mm 0 W/m2
04:45 3.9 °C 1.9 °C 990.4 hPa West 19.3 km/h 25.7 km/h 87 % 0 mm 0 W/m2
04:46 3.9 °C 1.9 °C 990.4 hPa West 20.9 km/h 30.6 km/h 87 % 0 mm 0 W/m2
04:51 3.9 °C 1.9 °C 990.4 hPa West 22.5 km/h 40.2 km/h 87 % 0 mm 0 W/m2
04:53 3.9 °C 1.9 °C 990.4 hPa West 22.5 km/h 40.2 km/h 87 % 0 mm 0 W/m2
04:55 4 °C 2.1 °C 990.4 hPa West 25.7 km/h 40.2 km/h 87 % 0 mm 0 W/m2
04:59 4.1 °C 1.9 °C 990.4 hPa West 22.5 km/h 40.2 km/h 86 % 0 mm 0 W/m2
05:02 4.1 °C 1.9 °C 990.4 hPa West 22.5 km/h 37 km/h 86 % 0 mm 0 W/m2
05:05 4.1 °C 1.9 °C 990.4 hPa West 17.7 km/h 32.2 km/h 86 % 0 mm 0 W/m2
05:11 4 °C 1.9 °C 990.4 hPa West 24.1 km/h 38.6 km/h 86 % 0 mm 0 W/m2
05:12 4.1 °C 1.9 °C 990.4 hPa West 24.1 km/h 38.6 km/h 86 % 0 mm 0 W/m2
05:16 4.1 °C 1.9 °C 990.4 hPa West 27.4 km/h 40.2 km/h 86 % 0 mm 0 W/m2
05:21 4.1 °C 1.9 °C 990.4 hPa West 25.7 km/h 41.8 km/h 86 % 0 mm 0 W/m2
05:23 4.1 °C 1.9 °C 990.4 hPa West 25.7 km/h 41.8 km/h 86 % 0 mm 0 W/m2
05:28 4.1 °C 1.9 °C 990.4 hPa West 27.4 km/h 37 km/h 86 % 0 mm 0 W/m2
05:30 4.1 °C 1.9 °C 990.4 hPa West 25.7 km/h 37 km/h 86 % 0 mm 0 W/m2
05:31 4.1 °C 1.9 °C 990.4 hPa West 24.1 km/h 37 km/h 86 % 0 mm 0 W/m2
05:37 4 °C 1.9 °C 990.7 hPa West 24.1 km/h 41.8 km/h 86 % 0 mm 0 W/m2
05:41 4.1 °C 2.1 °C 990.7 hPa West 27.4 km/h 41.8 km/h 87 % 0 mm 0 W/m2
05:46 4 °C 2.2 °C 991.1 hPa West 27.4 km/h 46.7 km/h 88 % 0 mm 0 W/m2
05:47 4 °C 2.2 °C 991.1 hPa West 29 km/h 46.7 km/h 88 % 0 mm 0 W/m2
05:49 3.9 °C 2.1 °C 991.1 hPa West 29 km/h 45.1 km/h 88 % 0 mm 0 W/m2
05:52 3.9 °C 2.3 °C 991.1 hPa West 25.7 km/h 35.4 km/h 89 % 0 mm 0 W/m2
05:55 3.8 °C 2.2 °C 991.1 hPa West 22.5 km/h 33.8 km/h 89 % 0 mm 0 W/m2
06:00 3.7 °C 2.2 °C 991.4 hPa West 19.3 km/h 30.6 km/h 90 % 0 mm 0 W/m2
06:01 3.7 °C 2.2 °C 991.4 hPa West 19.3 km/h 30.6 km/h 90 % 0 mm 0 W/m2
06:06 3.7 °C 2.2 °C 991.4 hPa West 19.3 km/h 30.6 km/h 90 % 0 mm 0 W/m2
06:08 3.7 °C 2.2 °C 991.4 hPa West 17.7 km/h 24.1 km/h 90 % 0 mm 0 W/m2
06:12 3.7 °C 2.2 °C 991.4 hPa West 17.7 km/h 29 km/h 90 % 0 mm 0 W/m2
06:14 3.7 °C 2.2 °C 991.4 hPa West 17.7 km/h 25.7 km/h 90 % 0 mm 0 W/m2
06:19 3.6 °C 2.1 °C 991.4 hPa West 17.7 km/h 25.7 km/h 90 % 0 mm 0 W/m2
06:22 3.6 °C 2.1 °C 991.4 hPa West 16.1 km/h 24.1 km/h 90 % 0 mm 0 W/m2
06:25 3.5 °C 2.2 °C 991.4 hPa West 19.3 km/h 30.6 km/h 91 % 0 mm 0 W/m2
06:29 3.4 °C 2.1 °C 991.4 hPa West 22.5 km/h 33.8 km/h 91 % 0 mm 0 W/m2
06:31 3.4 °C 2.1 °C 991.4 hPa West 20.9 km/h 30.6 km/h 91 % 0 mm 0 W/m2
06:36 3.4 °C 2.1 °C 991.4 hPa West 19.3 km/h 35.4 km/h 91 % 0.25 mm 0 W/m2
06:41 3.4 °C 2.1 °C 991.8 hPa West 25.7 km/h 38.6 km/h 91 % 0.25 mm 0 W/m2
06:42 3.4 °C 2.1 °C 991.8 hPa West 25.7 km/h 38.6 km/h 91 % 0.25 mm 0 W/m2
06:46 3.4 °C 2.1 °C 991.8 hPa West 20.9 km/h 33.8 km/h 91 % 0.25 mm 0 W/m2
06:51 3.3 °C 1.9 °C 991.4 hPa WSW 22.5 km/h 35.4 km/h 91 % 0.25 mm 0 W/m2
06:52 3.3 °C 1.9 °C 991.4 hPa West 20.9 km/h 32.2 km/h 91 % 0.51 mm 0 W/m2
06:57 3.2 °C 1.9 °C 991.4 hPa WSW 24.1 km/h 35.4 km/h 91 % 0.51 mm 0 W/m2
07:02 3.2 °C 1.9 °C 991.8 hPa WSW 20.9 km/h 30.6 km/h 91 % 0.51 mm 0 W/m2
07:07 3.3 °C 1.9 °C 991.8 hPa WSW 20.9 km/h 35.4 km/h 91 % 0.51 mm 0 W/m2
07:09 3.3 °C 1.9 °C 991.8 hPa West 25.7 km/h 35.4 km/h 91 % 0.51 mm 0 W/m2
07:14 3.4 °C 2.1 °C 991.8 hPa WSW 25.7 km/h 41.8 km/h 91 % 0.51 mm 0 W/m2
07:15 3.4 °C 2.1 °C 991.8 hPa WSW 25.7 km/h 41.8 km/h 91 % 0.51 mm 0 W/m2
07:20 3.3 °C 1.9 °C 991.4 hPa WSW 24.1 km/h 37 km/h 91 % 0.51 mm 0 W/m2
07:25 3.2 °C 1.9 °C 991.8 hPa WSW 16.1 km/h 25.7 km/h 91 % 0.51 mm 0 W/m2
07:26 3.2 °C 1.9 °C 991.8 hPa WSW 16.1 km/h 24.1 km/h 91 % 0.51 mm 0 W/m2
07:27 3.2 °C 1.9 °C 991.8 hPa WSW 17.7 km/h 30.6 km/h 91 % 0.51 mm 0 W/m2
07:32 3.2 °C 1.9 °C 991.8 hPa WSW 22.5 km/h 37 km/h 91 % 0.25 mm 0 W/m2
07:34 3.2 °C 1.9 °C 991.8 hPa WSW 17.7 km/h 30.6 km/h 91 % 0.25 mm 0 W/m2
07:37 3.3 °C 1.9 °C 991.8 hPa West 25.7 km/h 38.6 km/h 91 % 0.25 mm 0 W/m2
07:39 3.3 °C 1.9 °C 992.1 hPa West 24.1 km/h 38.6 km/h 91 % 0.25 mm 0 W/m2
07:44 3.3 °C 1.9 °C 992.1 hPa West 27.4 km/h 45.1 km/h 91 % 0.51 mm 0 W/m2
07:49 3 °C 1.5 °C 992.1 hPa WSW 25.7 km/h 38.6 km/h 90 % 0.51 mm 0 W/m2
07:51 2.9 °C 1.6 °C 992.1 hPa West 20.9 km/h 38.6 km/h 91 % 0.51 mm 0 W/m2
07:54 2.8 °C 1.5 °C 992.1 hPa West 17.7 km/h 24.1 km/h 91 % 0.51 mm 0 W/m2
07:59 2.8 °C 1.6 °C 992.1 hPa WSW 19.3 km/h 24.1 km/h 92 % 0.51 mm 0 W/m2
08:00 2.8 °C 1.6 °C 992.1 hPa WSW 19.3 km/h 24.1 km/h 92 % 0.51 mm 0 W/m2
08:02 2.8 °C 1.6 °C 992.1 hPa WSW 17.7 km/h 24.1 km/h 92 % 0.76 mm 0 W/m2
08:07 2.8 °C 1.6 °C 992.1 hPa WSW 14.5 km/h 24.1 km/h 92 % 0.76 mm 0 W/m2
08:08 2.8 °C 1.6 °C 992.1 hPa WSW 16.1 km/h 25.7 km/h 92 % 0.76 mm 0 W/m2
08:13 2.8 °C 1.6 °C 992.1 hPa WSW 17.7 km/h 33.8 km/h 92 % 0.76 mm 0 W/m2
08:17 2.8 °C 1.6 °C 992.1 hPa WSW 20.9 km/h 38.6 km/h 92 % 0.76 mm 0 W/m2
08:19 2.8 °C 1.6 °C 992.1 hPa WSW 16.1 km/h 25.7 km/h 92 % 0.76 mm 0 W/m2
08:24 2.8 °C 1.6 °C 992.1 hPa WSW 24.1 km/h 43.5 km/h 92 % 0.76 mm 0 W/m2
08:29 2.9 °C 1.7 °C 992.1 hPa WSW 20.9 km/h 37 km/h 92 % 1.27 mm 0 W/m2
08:33 2.8 °C 1.6 °C 991.8 hPa WSW 17.7 km/h 29 km/h 92 % 1.27 mm 5 W/m2
08:35 2.7 °C 1.6 °C 992.1 hPa WSW 16.1 km/h 24.1 km/h 92 % 1.27 mm 5 W/m2
08:40 2.7 °C 1.6 °C 992.1 hPa WSW 17.7 km/h 24.1 km/h 92 % 1.27 mm 7 W/m2
08:42 2.7 °C 1.6 °C 992.1 hPa WSW 17.7 km/h 24.1 km/h 92 % 1.27 mm 11 W/m2
08:47 2.8 °C 1.8 °C 992.1 hPa WSW 20.9 km/h 33.8 km/h 93 % 0.76 mm 5 W/m2
08:48 2.8 °C 1.8 °C 992.1 hPa WSW 19.3 km/h 33.8 km/h 93 % 1.02 mm 5 W/m2
08:52 2.9 °C 1.9 °C 992.1 hPa WSW 17.7 km/h 29 km/h 93 % 1.02 mm 12 W/m2
08:56 2.9 °C 1.9 °C 992.1 hPa WSW 20.9 km/h 32.2 km/h 93 % 1.27 mm 23 W/m2
09:01 2.8 °C 1.8 °C 992.1 hPa WSW 19.3 km/h 32.2 km/h 93 % 1.02 mm 26 W/m2
09:06 2.8 °C 1.8 °C 992.1 hPa WSW 16.1 km/h 24.1 km/h 93 % 1.02 mm 30 W/m2
09:08 2.8 °C 1.8 °C 992.1 hPa WSW 20.9 km/h 35.4 km/h 93 % 1.27 mm 35 W/m2
09:13 2.9 °C 1.9 °C 992.1 hPa West 14.5 km/h 22.5 km/h 93 % 1.27 mm 102 W/m2
09:15 2.9 °C 1.9 °C 992.1 hPa West 16.1 km/h 22.5 km/h 93 % 1.27 mm 109 W/m2
09:19 3.2 °C 2.2 °C 992.1 hPa WSW 14.5 km/h 22.5 km/h 93 % 1.27 mm 81 W/m2
09:22 3.2 °C 2.2 °C 992.1 hPa West 16.1 km/h 32.2 km/h 93 % 1.27 mm 72 W/m2
09:27 3.4 °C 2.4 °C 992.1 hPa WSW 11.3 km/h 20.9 km/h 93 % 1.02 mm 42 W/m2
09:28 3.4 °C 2.4 °C 992.1 hPa WSW 14.5 km/h 30.6 km/h 93 % 1.02 mm 54 W/m2
09:33 3.4 °C 2.2 °C 992.4 hPa West 19.3 km/h 29 km/h 92 % 0.76 mm 47 W/m2
09:38 3.4 °C 2.2 °C 992.4 hPa WSW 19.3 km/h 32.2 km/h 92 % 0.76 mm 26 W/m2
09:39 3.5 °C 2.3 °C 992.4 hPa WSW 19.3 km/h 32.2 km/h 92 % 0.76 mm 26 W/m2
09:41 3.4 °C 2.1 °C 992.1 hPa WSW 20.9 km/h 29 km/h 91 % 0.76 mm 28 W/m2
09:44 3.4 °C 2.1 °C 992.1 hPa WSW 19.3 km/h 32.2 km/h 91 % 0.76 mm 28 W/m2
09:49 3.3 °C 1.9 °C 992.1 hPa WSW 20.9 km/h 35.4 km/h 91 % 0.51 mm 77 W/m2
09:53 3.3 °C 1.9 °C 992.4 hPa WSW 17.7 km/h 29 km/h 91 % 0.51 mm 162 W/m2
09:58 3.5 °C 2.3 °C 992.1 hPa WSW 19.3 km/h 25.7 km/h 92 % 0.51 mm 102 W/m2
09:59 3.5 °C 2.3 °C 992.1 hPa WSW 20.9 km/h 33.8 km/h 92 % 0.25 mm 63 W/m2
10:02 3.6 °C 2.4 °C 992.1 hPa WSW 19.3 km/h 33.8 km/h 92 % 0.25 mm 67 W/m2
10:05 3.6 °C 2.3 °C 992.1 hPa WSW 24.1 km/h 33.8 km/h 91 % 0.25 mm 86 W/m2
10:09 3.6 °C 2.3 °C 992.1 hPa WSW 20.9 km/h 35.4 km/h 91 % 0 mm 162 W/m2
10:10 3.7 °C 2.4 °C 992.1 hPa WSW 19.3 km/h 35.4 km/h 91 % 0 mm 167 W/m2
10:15 3.8 °C 2.4 °C 992.1 hPa WSW 27.4 km/h 41.8 km/h 91 % 0 mm 121 W/m2
10:16 3.8 °C 2.4 °C 992.1 hPa WSW 25.7 km/h 41.8 km/h 91 % 0 mm 121 W/m2
10:18 3.7 °C 2.4 °C 992.1 hPa WSW 22.5 km/h 33.8 km/h 91 % 0 mm 26 W/m2
10:21 3.6 °C 2.1 °C 992.1 hPa WSW 27.4 km/h 41.8 km/h 90 % 0 mm 33 W/m2
10:23 3.6 °C 2.1 °C 992.1 hPa WSW 24.1 km/h 37 km/h 90 % 0 mm 39 W/m2
10:25 3.5 °C 2 °C 992.1 hPa WSW 24.1 km/h 37 km/h 90 % 0 mm 63 W/m2
10:30 3.4 °C 2.1 °C 992.1 hPa WSW 19.3 km/h 33.8 km/h 91 % 0 mm 128 W/m2
10:35 3.4 °C 2.1 °C 992.1 hPa WSW 19.3 km/h 32.2 km/h 91 % 0 mm 100 W/m2
10:36 3.4 °C 2.1 °C 992.1 hPa WSW 17.7 km/h 32.2 km/h 91 % 0 mm 100 W/m2
10:39 3.4 °C 2.1 °C 992.1 hPa WSW 17.7 km/h 29 km/h 91 % 0 mm 216 W/m2
10:41 3.5 °C 2.2 °C 992.1 hPa West 20.9 km/h 35.4 km/h 91 % 0 mm 216 W/m2
10:44 3.6 °C 2.3 °C 992.1 hPa West 19.3 km/h 30.6 km/h 91 % 0 mm 209 W/m2
10:49 3.8 °C 2.4 °C 992.1 hPa West 17.7 km/h 30.6 km/h 91 % 0 mm 213 W/m2
10:50 3.9 °C 2.6 °C 992.1 hPa West 17.7 km/h 25.7 km/h 91 % 0 mm 223 W/m2
10:55 4.3 °C 2.9 °C 992.1 hPa West 22.5 km/h 35.4 km/h 91 % 0 mm 297 W/m2
10:57 4.4 °C 2.9 °C 992.1 hPa West 22.5 km/h 35.4 km/h 90 % 0 mm 144 W/m2
10:59 4.4 °C 2.9 °C 992.1 hPa West 27.4 km/h 40.2 km/h 90 % 0.25 mm 74 W/m2
11:02 4.3 °C 2.7 °C 991.8 hPa West 19.3 km/h 33.8 km/h 89 % 0.25 mm 100 W/m2
11:07 4.2 °C 2.7 °C 991.8 hPa West 19.3 km/h 32.2 km/h 90 % 0.25 mm 185 W/m2
11:08 4.2 °C 2.7 °C 991.8 hPa West 20.9 km/h 35.4 km/h 90 % 0.25 mm 209 W/m2
11:14 4.3 °C 2.8 °C 991.8 hPa West 20.9 km/h 35.4 km/h 90 % 0.25 mm 207 W/m2
11:16 4.3 °C 2.8 °C 991.8 hPa West 17.7 km/h 29 km/h 90 % 0.25 mm 185 W/m2
11:21 4.4 °C 2.9 °C 991.8 hPa West 19.3 km/h 29 km/h 90 % 0.25 mm 188 W/m2
11:23 4.4 °C 2.9 °C 991.8 hPa West 19.3 km/h 32.2 km/h 90 % 0.25 mm 225 W/m2
11:28 4.6 °C 2.9 °C 991.8 hPa West 17.7 km/h 33.8 km/h 89 % 0.25 mm 218 W/m2
11:29 4.6 °C 2.9 °C 991.8 hPa West 20.9 km/h 37 km/h 89 % 0.25 mm 169 W/m2
11:34 4.7 °C 3.1 °C 991.8 hPa West 20.9 km/h 33.8 km/h 89 % 0.25 mm 232 W/m2
11:35 4.7 °C 3.1 °C 991.8 hPa West 20.9 km/h 33.8 km/h 89 % 0.25 mm 241 W/m2
11:40 4.9 °C 3.1 °C 991.8 hPa WSW 17.7 km/h 30.6 km/h 88 % 0.25 mm 223 W/m2
11:44 5.1 °C 3.3 °C 991.8 hPa West 16.1 km/h 24.1 km/h 88 % 0.25 mm 243 W/m2
11:49 5.2 °C 3.2 °C 991.8 hPa West 19.3 km/h 30.6 km/h 87 % 0.25 mm 246 W/m2
11:51 5.3 °C 3.3 °C 991.8 hPa West 17.7 km/h 24.1 km/h 87 % 0.25 mm 250 W/m2
11:56 5.4 °C 3.1 °C 991.8 hPa West 19.3 km/h 32.2 km/h 85 % 0.25 mm 251 W/m2
12:00 5.5 °C 3.2 °C 991.8 hPa West 14.5 km/h 24.1 km/h 85 % 0 mm 253 W/m2
12:03 5.5 °C 3.2 °C 991.8 hPa West 19.3 km/h 33.8 km/h 85 % 0 mm 246 W/m2
12:05 5.6 °C 3.1 °C 991.8 hPa West 19.3 km/h 30.6 km/h 84 % 0 mm 223 W/m2
12:09 5.6 °C 3.3 °C 991.8 hPa West 19.3 km/h 35.4 km/h 85 % 0 mm 234 W/m2
12:11 5.6 °C 3.1 °C 991.8 hPa West 20.9 km/h 35.4 km/h 84 % 0 mm 225 W/m2
12:14 5.5 °C 3 °C 991.8 hPa West 16.1 km/h 25.7 km/h 84 % 0 mm 95 W/m2
12:19 5.4 °C 2.9 °C 991.8 hPa West 17.7 km/h 25.7 km/h 84 % 0 mm 144 W/m2
12:20 5.4 °C 2.9 °C 991.8 hPa West 17.7 km/h 37 km/h 84 % 0 mm 155 W/m2
12:25 5.3 °C 2.8 °C 991.8 hPa WSW 17.7 km/h 25.7 km/h 84 % 0 mm 197 W/m2
12:26 5.4 °C 2.9 °C 991.8 hPa West 17.7 km/h 24.1 km/h 84 % 0 mm 197 W/m2
12:31 5.4 °C 2.7 °C 991.8 hPa West 16.1 km/h 32.2 km/h 83 % 0 mm 218 W/m2
12:32 5.4 °C 2.7 °C 991.8 hPa West 14.5 km/h 22.5 km/h 83 % 0 mm 207 W/m2
12:34 5.4 °C 2.7 °C 991.8 hPa West 16.1 km/h 29 km/h 83 % 0 mm 229 W/m2
12:39 5.6 °C 2.9 °C 991.8 hPa WSW 14.5 km/h 22.5 km/h 83 % 0 mm 239 W/m2
12:44 5.7 °C 3.1 °C 991.8 hPa West 14.5 km/h 22.5 km/h 83 % 0 mm 239 W/m2
12:45 5.7 °C 3.1 °C 991.8 hPa West 12.9 km/h 20.9 km/h 83 % 0 mm 239 W/m2
12:50 5.9 °C 3.1 °C 991.8 hPa West 17.7 km/h 24.1 km/h 82 % 0 mm 153 W/m2
12:52 5.9 °C 3.1 °C 991.4 hPa West 12.9 km/h 24.1 km/h 82 % 0 mm 144 W/m2
12:56 5.8 °C 2.8 °C 991.4 hPa WSW 16.1 km/h 24.1 km/h 81 % 0 mm 93 W/m2
13:01 5.7 °C 2.7 °C 991.4 hPa WSW 16.1 km/h 24.1 km/h 81 % 0 mm 230 W/m2
13:03 5.7 °C 2.7 °C 991.4 hPa WSW 17.7 km/h 25.7 km/h 81 % 0 mm 229 W/m2
13:08 5.7 °C 2.7 °C 991.4 hPa WSW 17.7 km/h 24.1 km/h 81 % 0 mm 214 W/m2
13:13 5.8 °C 2.8 °C 991.1 hPa WSW 16.1 km/h 25.7 km/h 81 % 0 mm 241 W/m2
13:17 5.9 °C 2.9 °C 991.4 hPa West 19.3 km/h 30.6 km/h 81 % 0 mm 221 W/m2
13:22 5.9 °C 2.7 °C 991.1 hPa WSW 16.1 km/h 25.7 km/h 80 % 0 mm 209 W/m2
13:23 5.9 °C 2.7 °C 991.1 hPa WSW 14.5 km/h 20.9 km/h 80 % 0 mm 206 W/m2
13:28 6 °C 2.8 °C 991.1 hPa WSW 16.1 km/h 22.5 km/h 80 % 0 mm 200 W/m2
13:29 6 °C 2.6 °C 991.1 hPa WSW 16.1 km/h 24.1 km/h 79 % 0 mm 200 W/m2
13:31 6 °C 2.6 °C 991.1 hPa WSW 16.1 km/h 24.1 km/h 79 % 0 mm 202 W/m2
13:36 6.1 °C 2.7 °C 991.1 hPa WSW 12.9 km/h 24.1 km/h 79 % 0 mm 169 W/m2
13:41 6 °C 2.6 °C 991.1 hPa WSW 11.3 km/h 20.9 km/h 79 % 0 mm 81 W/m2
13:44 5.9 °C 2.6 °C 991.1 hPa WSW 16.1 km/h 25.7 km/h 79 % 0 mm 185 W/m2
13:47 5.9 °C 2.6 °C 991.1 hPa SW 16.1 km/h 24.1 km/h 79 % 0 mm 181 W/m2
13:52 5.9 °C 2.6 °C 991.1 hPa SW 11.3 km/h 17.7 km/h 79 % 0 mm 172 W/m2
13:53 6 °C 2.6 °C 991.1 hPa SW 9.7 km/h 17.7 km/h 79 % 0 mm 176 W/m2
13:58 6.1 °C 2.7 °C 991.1 hPa SW 14.5 km/h 20.9 km/h 79 % 0 mm 199 W/m2
13:59 6.1 °C 2.7 °C 991.1 hPa SW 14.5 km/h 20.9 km/h 79 % 0 mm 199 W/m2
14:03 6.1 °C 2.6 °C 991.1 hPa WSW 16.1 km/h 22.5 km/h 78 % 0 mm 165 W/m2
14:05 6.1 °C 2.6 °C 991.1 hPa WSW 17.7 km/h 22.5 km/h 78 % 0 mm 156 W/m2
14:10 5.9 °C 2.2 °C 991.1 hPa WSW 16.1 km/h 32.2 km/h 77 % 0 mm 30 W/m2
14:15 5.7 °C 2.2 °C 991.1 hPa WSW 11.3 km/h 17.7 km/h 78 % 0 mm 25 W/m2
14:16 5.7 °C 2.2 °C 991.1 hPa WSW 11.3 km/h 17.7 km/h 78 % 0 mm 28 W/m2
14:21 5.6 °C 2.2 °C 991.1 hPa SW 12.9 km/h 20.9 km/h 79 % 0 mm 151 W/m2
14:25 5.6 °C 2.2 °C 991.1 hPa SW 11.3 km/h 16.1 km/h 79 % 0 mm 60 W/m2
14:26 5.6 °C 2.2 °C 991.1 hPa WSW 11.3 km/h 17.7 km/h 79 % 0 mm 60 W/m2
14:31 5.6 °C 2.2 °C 991.1 hPa WSW 12.9 km/h 22.5 km/h 79 % 0 mm 90 W/m2
14:34 5.6 °C 2.2 °C 990.7 hPa WSW 11.3 km/h 17.7 km/h 79 % 0 mm 47 W/m2
14:36 5.6 °C 2.2 °C 990.7 hPa WSW 12.9 km/h 22.5 km/h 79 % 0 mm 105 W/m2
14:39 5.6 °C 2.2 °C 990.7 hPa WSW 14.5 km/h 22.5 km/h 79 % 0 mm 33 W/m2
14:41 5.6 °C 2.1 °C 990.7 hPa WSW 14.5 km/h 30.6 km/h 78 % 0 mm 28 W/m2
14:45 5.5 °C 1.9 °C 990.7 hPa WSW 19.3 km/h 32.2 km/h 78 % 0 mm 26 W/m2
14:47 5.4 °C 1.9 °C 990.7 hPa WSW 17.7 km/h 32.2 km/h 78 % 0 mm 69 W/m2
14:51 5.4 °C 1.9 °C 990.7 hPa WSW 17.7 km/h 30.6 km/h 78 % 0 mm 28 W/m2
14:52 5.3 °C 1.8 °C 990.7 hPa WSW 11.3 km/h 19.3 km/h 78 % 0 mm 26 W/m2
14:57 5.3 °C 1.9 °C 990.7 hPa WSW 12.9 km/h 19.3 km/h 79 % 0 mm 39 W/m2
14:59 5.2 °C 1.8 °C 990.7 hPa WSW 11.3 km/h 17.7 km/h 79 % 0 mm 40 W/m2
15:04 5.2 °C 2.1 °C 990.7 hPa WSW 6.4 km/h 11.3 km/h 80 % 0 mm 19 W/m2
15:05 5.2 °C 2.1 °C 990.7 hPa WSW 6.4 km/h 11.3 km/h 80 % 0 mm 18 W/m2
15:07 5.1 °C 1.9 °C 990.7 hPa WSW 1.6 km/h 8 km/h 80 % 0 mm 16 W/m2
15:12 5.1 °C 1.9 °C 990.7 hPa WSW 1.6 km/h 6.4 km/h 80 % 0 mm 14 W/m2
15:14 5 °C 1.8 °C 990.7 hPa Calm   6.4 km/h 80 % 0 mm 12 W/m2
15:18 4.9 °C 1.7 °C 990.7 hPa Calm   1.6 km/h 80 % 0 mm 11 W/m2
15:20 4.8 °C 1.7 °C 990.7 hPa Calm   1.6 km/h 80 % 0 mm 11 W/m2
15:25 4.7 °C 1.7 °C 990.7 hPa East 4.8 km/h 8 km/h 81 % 0 mm 9 W/m2
15:30 4.6 °C 1.8 °C 991.1 hPa East 3.2 km/h 6.4 km/h 82 % 0 mm 7 W/m2
15:33 4.4 °C 1.6 °C 990.7 hPa Calm   1.6 km/h 82 % 0 mm 7 W/m2
15:38 4.3 °C 1.7 °C 990.7 hPa Calm     83 % 0 mm 5 W/m2
15:41 4.3 °C 1.7 °C 990.7 hPa WSW 3.2 km/h 9.7 km/h 83 % 0 mm 5 W/m2
15:46 4.2 °C 1.6 °C 990.7 hPa WSW 1.6 km/h 8 km/h 83 % 0 mm 0 W/m2
15:47 4.2 °C 1.6 °C 990.7 hPa WSW 3.2 km/h 8 km/h 83 % 0 mm 0 W/m2
15:52 4.2 °C 1.6 °C 990.4 hPa WSW 9.7 km/h 16.1 km/h 83 % 0 mm 0 W/m2
15:54 4.2 °C 1.6 °C 990.4 hPa WSW 9.7 km/h 14.5 km/h 83 % 0 mm 0 W/m2
15:58 4.3 °C 1.7 °C 990.4 hPa WSW 4.8 km/h 12.9 km/h 83 % 0 mm 0 W/m2
16:03 4.2 °C 1.6 °C 990.4 hPa West 1.6 km/h 6.4 km/h 83 % 0 mm 0 W/m2
16:05 4.2 °C 1.6 °C 990.4 hPa Calm   4.8 km/h 83 % 0 mm 0 W/m2
16:09 4.1 °C 1.4 °C 990.7 hPa SE 4.8 km/h 9.7 km/h 83 % 0 mm 0 W/m2
16:14 3.9 °C 1.3 °C 990.7 hPa East 6.4 km/h 9.7 km/h 83 % 0 mm 0 W/m2
16:15 3.9 °C 1.4 °C 990.7 hPa East 3.2 km/h 8 km/h 84 % 0 mm 0 W/m2
16:20 3.8 °C 1.3 °C 990.4 hPa ENE 4.8 km/h 9.7 km/h 84 % 0 mm 0 W/m2
16:21 3.8 °C 1.3 °C 990.4 hPa ENE 4.8 km/h 9.7 km/h 84 % 0 mm 0 W/m2
16:25 3.8 °C 1.5 °C 990.4 hPa East 1.6 km/h 8 km/h 85 % 0 mm 0 W/m2
16:31 3.7 °C 1.4 °C 990.4 hPa Calm   1.6 km/h 85 % 0 mm 0 W/m2
16:33 3.7 °C 1.4 °C 990.4 hPa Calm     85 % 0 mm 0 W/m2
16:38 3.7 °C 1.4 °C 990.4 hPa Calm     85 % 0 mm 0 W/m2
16:42 3.7 °C 1.4 °C 990.4 hPa Calm     85 % 0 mm 0 W/m2
16:47 3.6 °C 1.5 °C 990.4 hPa Calm   3.2 km/h 86 % 0 mm 0 W/m2
16:52 3.6 °C 1.5 °C 990.4 hPa Calm   3.2 km/h 86 % 0 mm 0 W/m2
16:56 3.6 °C 1.5 °C 990.1 hPa East 1.6 km/h 6.4 km/h 86 % 0 mm 0 W/m2
17:01 3.6 °C 1.6 °C 990.1 hPa Calm     87 % 0 mm 0 W/m2
17:06 3.5 °C 1.6 °C 990.1 hPa Calm     87 % 0 mm 0 W/m2
17:07 3.5 °C 1.6 °C 990.1 hPa Calm     87 % 0 mm 0 W/m2
17:12 3.4 °C 1.4 °C 989.7 hPa Calm     87 % 0 mm 0 W/m2
17:14 3.4 °C 1.4 °C 989.7 hPa Calm     87 % 0 mm 0 W/m2
17:19 3.3 °C 1.5 °C 990.1 hPa Calm     88 % 0 mm 0 W/m2
17:24 3.3 °C 1.5 °C 990.1 hPa ESE 1.6 km/h 6.4 km/h 88 % 0 mm 0 W/m2
17:27 3.3 °C 1.5 °C 989.7 hPa ESE 1.6 km/h 3.2 km/h 88 % 0 mm 0 W/m2
17:33 3.3 °C 1.7 °C 989.7 hPa Calm     89 % 0 mm 0 W/m2
17:38 3.2 °C 1.6 °C 989.7 hPa Calm   1.6 km/h 89 % 0 mm 0 W/m2
17:39 3.2 °C 1.6 °C 989.7 hPa Calm     89 % 0 mm 0 W/m2
17:44 3.1 °C 1.4 °C 989.4 hPa Calm     89 % 0 mm 0 W/m2
17:47 3.1 °C 1.4 °C 989.4 hPa Calm     89 % 0 mm 0 W/m2
17:48 3.1 °C 1.4 °C 989.4 hPa Calm     89 % 0 mm 0 W/m2
17:53 3 °C 1.4 °C 989.4 hPa Calm     89 % 0 mm 0 W/m2
17:58 2.9 °C 1.3 °C 989.4 hPa Calm     89 % 0 mm 0 W/m2
18:03 2.8 °C 1.2 °C 989.4 hPa Calm     89 % 0 mm 0 W/m2
18:07 2.8 °C 1.3 °C 989.4 hPa ESE 1.6 km/h 6.4 km/h 90 % 0 mm 0 W/m2
18:12 2.8 °C 1.3 °C 989.4 hPa Calm   1.6 km/h 90 % 0 mm 0 W/m2
18:14 2.8 °C 1.3 °C 989.4 hPa Calm   1.6 km/h 90 % 0 mm 0 W/m2
18:18 2.7 °C 1.2 °C 989.4 hPa Calm     90 % 0 mm 0 W/m2
18:23 2.7 °C 1.4 °C 989.4 hPa ESE 3.2 km/h 6.4 km/h 91 % 0 mm 0 W/m2
18:25 2.7 °C 1.4 °C 989.4 hPa Calm   3.2 km/h 91 % 0 mm 0 W/m2
18:27 2.7 °C 1.4 °C 989.4 hPa Calm     91 % 0 mm 0 W/m2
18:32 2.7 °C 1.4 °C 989.1 hPa Calm     91 % 0 mm 0 W/m2
18:37 2.6 °C 1.3 °C 989.1 hPa Calm     91 % 0 mm 0 W/m2
18:41 2.6 °C 1.3 °C 989.1 hPa Calm     91 % 0 mm 0 W/m2
18:44 2.6 °C 1.3 °C 989.1 hPa Calm     91 % 0 mm 0 W/m2
18:49 2.5 °C 1.2 °C 989.1 hPa Calm     91 % 0 mm 0 W/m2
18:54 2.4 °C 1.1 °C 989.1 hPa Calm     91 % 0 mm 0 W/m2
18:59 2.4 °C 1.1 °C 988.7 hPa Calm     91 % 0 mm 0 W/m2
19:03 2.4 °C 1.2 °C 988.7 hPa Calm     92 % 0 mm 0 W/m2
19:06 2.4 °C 1.2 °C 988.7 hPa Calm     92 % 0 mm 0 W/m2
19:09 2.4 °C 1.2 °C 988.7 hPa Calm     92 % 0 mm 0 W/m2
19:10 2.4 °C 1.2 °C 988.7 hPa Calm     92 % 0 mm 0 W/m2
19:15 2.4 °C 1.2 °C 988.7 hPa Calm     92 % 0 mm 0 W/m2
19:20 2.4 °C 1.2 °C 988.7 hPa Calm     92 % 0 mm 0 W/m2
19:21 2.4 °C 1.2 °C 988.7 hPa Calm     92 % 0 mm 0 W/m2
19:26 2.3 °C 1.1 °C 988.7 hPa Calm     92 % 0 mm 0 W/m2
19:30 2.3 °C 1.1 °C 988.7 hPa Calm     92 % 0 mm 0 W/m2
19:35 2.4 °C 1.4 °C 988.4 hPa Calm     93 % 0 mm 0 W/m2
19:36 2.4 °C 1.4 °C 988.4 hPa Calm     93 % 0 mm 0 W/m2
19:41 2.4 °C 1.4 °C 988.4 hPa Calm     93 % 0 mm 0 W/m2
19:42 2.4 °C 1.4 °C 988.4 hPa Calm     93 % 0 mm 0 W/m2
19:43 2.4 °C 1.4 °C 988.4 hPa Calm     93 % 0 mm 0 W/m2
19:47 2.3 °C 1.3 °C 988.4 hPa Calm     93 % 0 mm 0 W/m2
19:50 2.3 °C 1.3 °C 988.4 hPa Calm     93 % 0 mm 0 W/m2
19:54 2.3 °C 1.3 °C 988 hPa Calm     93 % 0 mm 0 W/m2
19:59 2.3 °C 1.3 °C 988 hPa Calm     93 % 0 mm 0 W/m2
20:00 2.3 °C 1.3 °C 988 hPa Calm     93 % 0 mm 0 W/m2
20:04 2.3 °C 1.1 °C 988 hPa Calm     92 % 0 mm 0 W/m2
20:07 2.2 °C 1.2 °C 988 hPa Calm     93 % 0 mm 0 W/m2
20:12 2.2 °C 1.2 °C 988 hPa Calm     93 % 0 mm 0 W/m2
20:16 2.2 °C 1.2 °C 988 hPa Calm     93 % 0 mm 0 W/m2
20:18 2.2 °C 1.2 °C 988 hPa Calm     93 % 0 mm 0 W/m2
20:23 2.2 °C 1.2 °C 987.7 hPa Calm     93 % 0 mm 0 W/m2
20:27 2.2 °C 1.2 °C 987.7 hPa Calm     93 % 0 mm 0 W/m2
20:29 2.2 °C 1.2 °C 987.7 hPa Calm   3.2 km/h 93 % 0 mm 0 W/m2
20:34 2.2 °C 1.2 °C 987.7 hPa Calm     93 % 0 mm 0 W/m2
20:36 2.3 °C 1.4 °C 987.7 hPa Calm     94 % 0 mm 0 W/m2
20:41 2.3 °C 1.3 °C 987.4 hPa Calm     93 % 0 mm 0 W/m2
20:43 2.3 °C 1.3 °C 987.4 hPa Calm     93 % 0 mm 0 W/m2
20:48 2.2 °C 1.2 °C 987.4 hPa Calm     93 % 0 mm 0 W/m2
20:49 2.2 °C 1.2 °C 987.4 hPa Calm     93 % 0 mm 0 W/m2
20:54 2.2 °C 1.2 °C 987.4 hPa Calm   1.6 km/h 93 % 0 mm 0 W/m2
20:59 2.2 °C 1.3 °C 987.4 hPa Calm     94 % 0 mm 0 W/m2
21:00 2.2 °C 1.2 °C 987 hPa Calm     93 % 0 mm 0 W/m2
21:02 2.2 °C 1.2 °C 987 hPa Calm     93 % 0 mm 0 W/m2
21:05 2.2 °C 1.2 °C 987.4 hPa Calm     93 % 0 mm 0 W/m2
21:08 2.2 °C 1.2 °C 987 hPa Calm     93 % 0 mm 0 W/m2
21:13 2.2 °C 1.3 °C 987 hPa NNE 4.8 km/h 9.7 km/h 94 % 0 mm 0 W/m2
21:18 2.4 °C 1.6 °C 987 hPa NNE 4.8 km/h 12.9 km/h 94 % 0 mm 0 W/m2
21:20 2.4 °C 1.6 °C 987 hPa NNE 1.6 km/h 6.4 km/h 94 % 0 mm 0 W/m2
21:21 2.4 °C 1.6 °C 987 hPa NNE 3.2 km/h 8 km/h 94 % 0 mm 0 W/m2
21:26 2.5 °C 1.6 °C 987 hPa NNE 8 km/h 12.9 km/h 94 % 0 mm 0 W/m2
21:27 2.5 °C 1.6 °C 987 hPa NNE 8 km/h 12.9 km/h 94 % 0 mm 0 W/m2
21:32 2.6 °C 1.7 °C 986.7 hPa NNE 6.4 km/h 12.9 km/h 94 % 0 mm 0 W/m2
21:34 2.6 °C 1.7 °C 986.7 hPa NNE 8 km/h 11.3 km/h 94 % 0 mm 0 W/m2
21:39 2.6 °C 1.7 °C 986.7 hPa NNE 9.7 km/h 14.5 km/h 94 % 0 mm 0 W/m2
21:41 2.6 °C 1.7 °C 986.7 hPa NNE 11.3 km/h 16.1 km/h 94 % 0 mm 0 W/m2
21:46 2.6 °C 1.6 °C 986.7 hPa NNE 9.7 km/h 12.9 km/h 93 % 0 mm 0 W/m2
21:50 2.6 °C 1.6 °C 986.7 hPa North 6.4 km/h 12.9 km/h 93 % 0 mm 0 W/m2
21:55 2.6 °C 1.6 °C 986.7 hPa NNE 11.3 km/h 16.1 km/h 93 % 0 mm 0 W/m2
21:57 2.6 °C 1.6 °C 986.7 hPa NNE 11.3 km/h 16.1 km/h 93 % 0 mm 0 W/m2
21:59 2.6 °C 1.6 °C 986.7 hPa NNE 11.3 km/h 16.1 km/h 93 % 0 mm 0 W/m2
22:04 2.6 °C 1.7 °C 986.3 hPa NE 4.8 km/h 11.3 km/h 94 % 0 mm 0 W/m2
22:08 2.6 °C 1.7 °C 986.3 hPa NNE 8 km/h 11.3 km/h 94 % 0 mm 0 W/m2
22:13 2.6 °C 1.7 °C 986.3 hPa NNE 8 km/h 12.9 km/h 94 % 0 mm 0 W/m2
22:15 2.6 °C 1.7 °C 986.3 hPa NNE 8 km/h 16.1 km/h 94 % 0 mm 0 W/m2
22:20 2.6 °C 1.7 °C 986.3 hPa NNE 8 km/h 14.5 km/h 94 % 0 mm 0 W/m2
22:25 2.7 °C 1.8 °C 986.3 hPa North 9.7 km/h 16.1 km/h 94 % 0 mm 0 W/m2
22:26 2.7 °C 1.8 °C 986.3 hPa North 9.7 km/h 16.1 km/h 94 % 0 mm 0 W/m2
22:31 2.7 °C 1.8 °C 986 hPa NNE 12.9 km/h 17.7 km/h 94 % 0 mm 0 W/m2
22:33 2.7 °C 1.8 °C 986.3 hPa North 9.7 km/h 16.1 km/h 94 % 0 mm 0 W/m2
22:34 2.7 °C 1.8 °C 986 hPa North 9.7 km/h 16.1 km/h 94 % 0 mm 0 W/m2
22:39 2.7 °C 1.8 °C 986.3 hPa NNE 9.7 km/h 14.5 km/h 94 % 0 mm 0 W/m2
22:44 2.7 °C 1.8 °C 986 hPa NE 6.4 km/h 12.9 km/h 94 % 0 mm 0 W/m2
22:46 2.8 °C 1.9 °C 986.3 hPa NNE 8 km/h 14.5 km/h 94 % 0 mm 0 W/m2
22:47 2.8 °C 1.9 °C 986 hPa NNE 8 km/h 14.5 km/h 94 % 0 mm 0 W/m2
22:51 2.8 °C 1.9 °C 986 hPa NNE 9.7 km/h 12.9 km/h 94 % 0 mm 0 W/m2
22:55 2.8 °C 1.9 °C 986 hPa North 11.3 km/h 16.1 km/h 94 % 0 mm 0 W/m2
22:58 2.8 °C 1.9 °C 986 hPa NNE 8 km/h 14.5 km/h 94 % 0 mm 0 W/m2
23:03 2.8 °C 1.8 °C 986 hPa North 11.3 km/h 16.1 km/h 93 % 0 mm 0 W/m2
23:04 2.8 °C 1.8 °C 986 hPa North 11.3 km/h 20.9 km/h 93 % 0 mm 0 W/m2
23:09 2.8 °C 1.8 °C 986 hPa NNE 9.7 km/h 17.7 km/h 93 % 0 mm 0 W/m2
23:11 2.8 °C 1.8 °C 986 hPa North 9.7 km/h 14.5 km/h 93 % 0 mm 0 W/m2
23:16 2.8 °C 1.8 °C 985.7 hPa North 11.3 km/h 17.7 km/h 93 % 0 mm 0 W/m2
23:17 2.8 °C 1.8 °C 986 hPa North 9.7 km/h 17.7 km/h 93 % 0 mm 0 W/m2
23:20 2.8 °C 1.8 °C 985.7 hPa North 11.3 km/h 17.7 km/h 93 % 0 mm 0 W/m2
23:22 2.8 °C 1.8 °C 985.7 hPa North 11.3 km/h 20.9 km/h 93 % 0 mm 0 W/m2
23:27 2.7 °C 1.7 °C 985.7 hPa North 11.3 km/h 16.1 km/h 93 % 0 mm 0 W/m2
23:28 2.7 °C 1.7 °C 985.7 hPa North 11.3 km/h 16.1 km/h 93 % 0 mm 0 W/m2
23:33 2.7 °C 1.7 °C 985.7 hPa North 11.3 km/h 17.7 km/h 93 % 0 mm 0 W/m2
23:35 2.7 °C 1.7 °C 985.7 hPa NNE 11.3 km/h 20.9 km/h 93 % 0 mm 0 W/m2
23:40 2.6 °C 1.7 °C 985.3 hPa NNE 9.7 km/h 16.1 km/h 94 % 0 mm 0 W/m2
23:44 2.6 °C 1.7 °C 985.3 hPa NNE 9.7 km/h 19.3 km/h 94 % 0 mm 0 W/m2
23:49 2.5 °C 1.6 °C 985.3 hPa NNE 11.3 km/h 24.1 km/h 94 % 0 mm 0 W/m2
23:52 2.5 °C 1.6 °C 985.7 hPa NNE 12.9 km/h 24.1 km/h 94 % 0 mm 0 W/m2
23:57 2.4 °C 1.6 °C 985.3 hPa NNE 11.3 km/h 20.9 km/h 94 % 0.25 mm 0 W/m2
23:58 2.4 °C 1.6 °C 985.3 hPa NNE 11.3 km/h 22.5 km/h 94 % 0.25 mm 0 W/m2
Delerius-Weather
Compliments of Weather Underground - 3 mb

Data updates at regular intervals.